Time;durP1;ratioP1;P1;durP2;ratioP2;P2;SDS_P1;SDS_P2;PMS_P1;PMS_P2;Temp;Humidity;BMP_temperature;BMP_pressure;BME280_temperature;BME280_humidity;BME280_pressure;Samples;Min_cycle;Max_cycle;Signal;HPM_P1;HPM_P2
2021/11/24 00:00:13;;;;;;;24.13;15.32;;;;;;;;;;4995809;28;20034;-72
2021/11/24 00:02:39;;;;;;;18.85;13.55;;;;;;;;;;5013667;28;20103;-69
2021/11/24 00:05:05;;;;;;;19.20;13.85;;;;;;;;;;5013496;28;20029;-70
2021/11/24 00:07:31;;;;;;;22.63;15.32;;;;;;;;;;5013532;28;20041;-71
2021/11/24 00:09:57;;;;;;;20.35;13.88;;;;;;;;;;5014083;28;20030;-71
2021/11/24 00:12:23;;;;;;;18.30;13.10;;;;;;;;;;5014588;28;20079;-71
2021/11/24 00:14:49;;;;;;;21.52;15.15;;;;;;;;;;5013822;28;20022;-70
2021/11/24 00:17:16;;;;;;;21.50;14.98;;;;;;;;;;5014371;28;20084;-72
2021/11/24 00:19:42;;;;;;;19.33;14.27;;;;;;;;;;5014286;28;20029;-71
2021/11/24 00:22:09;;;;;;;23.45;14.65;;;;;;;;;;5013327;28;20025;-71
2021/11/24 00:24:35;;;;;;;19.92;14.02;;;;;;;;;;5012970;28;20025;-71
2021/11/24 00:27:01;;;;;;;24.23;15.25;;;;;;;;;;5012995;28;20502;-69
2021/11/24 00:29:27;;;;;;;20.40;14.32;;;;;;;;;;5013054;28;20034;-72
2021/11/24 00:31:53;;;;;;;26.85;18.08;;;;;;;;;;5012944;28;20033;-71
2021/11/24 00:34:19;;;;;;;42.70;24.58;;;;;;;;;;5012789;28;20484;-71
2021/11/24 00:36:45;;;;;;;24.23;16.45;;;;;;;;;;5013142;28;20038;-71
2021/11/24 00:39:10;;;;;;;25.42;16.60;;;;;;;;;;5008610;28;20084;-69
2021/11/24 00:41:36;;;;;;;32.45;18.33;;;;;;;;;;4993375;28;20230;-70
2021/11/24 00:44:03;;;;;;;32.35;20.27;;;;;;;;;;4992879;28;20026;-72
2021/11/24 00:46:29;;;;;;;38.63;22.70;;;;;;;;;;4991825;28;20498;-71
2021/11/24 00:48:55;;;;;;;28.58;18.45;;;;;;;;;;4993086;28;20022;-72
2021/11/24 00:51:21;;;;;;;28.73;17.92;;;;;;;;;;4993469;28;20102;-72
2021/11/24 00:53:46;;;;;;;43.05;25.60;;;;;;;;;;4991914;28;20121;-71
2021/11/24 00:56:12;;;;;;;29.92;19.98;;;;;;;;;;4993015;28;20027;-71
2021/11/24 00:58:38;;;;;;;31.85;18.83;;;;;;;;;;4992912;28;20030;-71
2021/11/24 01:01:04;;;;;;;30.23;19.15;;;;;;;;;;5001580;28;20472;-71
2021/11/24 01:03:30;;;;;;;27.55;17.20;;;;;;;;;;5012245;28;20034;-72
2021/11/24 01:05:56;;;;;;;23.83;14.75;;;;;;;;;;5011222;28;20026;-72
2021/11/24 01:08:23;;;;;;;26.10;16.00;;;;;;;;;;5012408;28;20018;-72
2021/11/24 01:10:49;;;;;;;26.30;15.60;;;;;;;;;;5012318;28;20026;-72
2021/11/24 01:13:16;;;;;;;23.98;15.60;;;;;;;;;;5012066;28;20527;-72
2021/11/24 01:15:42;;;;;;;17.17;11.40;;;;;;;;;;5012159;28;20040;-72
2021/11/24 01:18:08;;;;;;;16.95;10.98;;;;;;;;;;5012256;28;20045;-72
2021/11/24 01:20:34;;;;;;;17.63;11.93;;;;;;;;;;5012126;28;20483;-72
2021/11/24 01:23:00;;;;;;;17.50;12.60;;;;;;;;;;5011982;28;20395;-72
2021/11/24 01:25:29;;;;;;;16.05;11.60;;;;;;;;;;5010076;28;20368;-72
2021/11/24 01:27:55;;;;;;;18.15;12.60;;;;;;;;;;5012003;28;20053;-71
2021/11/24 01:30:21;;;;;;;26.60;15.65;;;;;;;;;;5012046;28;20018;-70
2021/11/24 01:32:47;;;;;;;16.42;10.10;;;;;;;;;;5011850;28;20351;-71
2021/11/24 01:35:13;;;;;;;15.52;10.75;;;;;;;;;;5012059;28;20018;-71
2021/11/24 01:37:39;;;;;;;15.45;11.32;;;;;;;;;;5011874;28;20022;-72
2021/11/24 01:40:05;;;;;;;15.75;11.70;;;;;;;;;;5000225;28;20030;-71
2021/11/24 01:42:33;;;;;;;21.70;12.77;;;;;;;;;;4992241;28;20030;-71
2021/11/24 01:44:59;;;;;;;17.75;12.32;;;;;;;;;;4992154;28;20057;-72
2021/11/24 01:47:25;;;;;;;17.27;12.02;;;;;;;;;;4992218;28;20488;-72
2021/11/24 01:49:51;;;;;;;18.48;12.45;;;;;;;;;;4992243;28;20046;-71
2021/11/24 01:52:17;;;;;;;18.95;11.63;;;;;;;;;;4992641;28;20480;-71
2021/11/24 01:54:43;;;;;;;17.20;11.07;;;;;;;;;;4992543;28;20031;-72
2021/11/24 01:57:10;;;;;;;18.58;11.88;;;;;;;;;;4992330;28;20038;-71
2021/11/24 01:59:36;;;;;;;18.83;12.02;;;;;;;;;;4992457;28;20551;-71
2021/11/24 02:02:02;;;;;;;15.80;10.40;;;;;;;;;;5008565;28;20030;-70
2021/11/24 02:04:28;;;;;;;18.73;12.80;;;;;;;;;;5011674;28;20483;-72
2021/11/24 02:06:55;;;;;;;18.80;12.77;;;;;;;;;;5011705;28;20109;-71
2021/11/24 02:09:21;;;;;;;18.08;12.38;;;;;;;;;;5011629;28;20025;-71
2021/11/24 02:11:48;;;;;;;21.52;12.10;;;;;;;;;;5011594;28;20057;-71
2021/11/24 02:14:15;;;;;;;17.98;11.68;;;;;;;;;;5011643;28;20028;-70
2021/11/24 02:16:45;;;;;;;20.02;12.13;;;;;;;;;;5010312;28;20092;-71
2021/11/24 02:19:11;;;;;;;18.02;11.88;;;;;;;;;;5011648;28;20399;-71
2021/11/24 02:21:37;;;;;;;19.08;12.25;;;;;;;;;;5011603;28;20510;-71
2021/11/24 02:24:04;;;;;;;18.60;12.90;;;;;;;;;;5010062;28;20097;-71
2021/11/24 02:26:30;;;;;;;18.73;11.90;;;;;;;;;;5011615;28;20030;-71
2021/11/24 02:28:56;;;;;;;19.48;12.80;;;;;;;;;;5011551;28;20037;-72
2021/11/24 02:31:23;;;;;;;17.38;11.43;;;;;;;;;;5011352;28;20030;-71
2021/11/24 02:33:50;;;;;;;17.63;11.10;;;;;;;;;;5010912;28;20030;-72
2021/11/24 02:36:16;;;;;;;19.50;12.27;;;;;;;;;;5010706;28;20030;-72
2021/11/24 02:38:43;;;;;;;16.83;11.45;;;;;;;;;;5012909;28;20034;-71
2021/11/24 02:41:09;;;;;;;16.20;10.52;;;;;;;;;;4995110;28;20041;-71
2021/11/24 02:43:35;;;;;;;18.48;11.65;;;;;;;;;;4993966;28;20027;-72
2021/11/24 02:46:01;;;;;;;17.05;11.95;;;;;;;;;;4993921;28;20036;-70
2021/11/24 02:48:27;;;;;;;15.68;11.32;;;;;;;;;;4995286;28;20027;-71
2021/11/24 02:50:56;;;;;;;18.88;12.35;;;;;;;;;;4993965;28;20023;-69
2021/11/24 02:53:32;;;;;;;19.08;12.57;;;;;;;;;;4994800;28;20018;-71
2021/11/24 02:55:59;;;;;;;20.60;13.95;;;;;;;;;;4995033;28;20022;-71
2021/11/24 02:58:25;;;;;;;19.75;12.88;;;;;;;;;;4995004;28;20073;-71
2021/11/24 03:00:52;;;;;;;18.45;13.85;;;;;;;;;;5001794;28;20025;-71
2021/11/24 03:03:18;;;;;;;19.45;13.65;;;;;;;;;;5014281;28;20026;-71
2021/11/24 03:05:45;;;;;;;20.88;14.73;;;;;;;;;;5014413;28;20028;-70
2021/11/24 03:08:11;;;;;;;23.30;15.88;;;;;;;;;;5014576;28;20036;-71
2021/11/24 03:10:37;;;;;;;26.52;16.92;;;;;;;;;;5014577;28;20018;-71
2021/11/24 03:13:04;;;;;;;24.35;15.32;;;;;;;;;;5014108;28;20518;-70
2021/11/24 03:15:30;;;;;;;28.58;17.83;;;;;;;;;;5014493;28;20102;-71
2021/11/24 03:17:56;;;;;;;25.17;16.02;;;;;;;;;;5014284;28;20033;-71
2021/11/24 03:20:25;;;;;;;25.05;17.13;;;;;;;;;;5014160;28;20026;-72
2021/11/24 03:22:52;;;;;;;27.73;17.23;;;;;;;;;;5013920;28;20435;-72
2021/11/24 03:25:18;;;;;;;25.13;16.30;;;;;;;;;;5014144;28;20521;-72
2021/11/24 03:27:44;;;;;;;22.88;16.50;;;;;;;;;;5013927;28;20129;-71
2021/11/24 03:30:17;;;;;;;25.85;16.02;;;;;;;;;;5014084;28;20434;-71
2021/11/24 03:32:44;;;;;;;26.27;16.70;;;;;;;;;;5013898;28;20026;-72
2021/11/24 03:35:10;;;;;;;28.02;16.42;;;;;;;;;;5014106;28;20022;-71
2021/11/24 03:37:36;;;;;;;26.90;17.50;;;;;;;;;;5013821;28;20032;-72
2021/11/24 03:40:04;;;;;;;26.75;16.80;;;;;;;;;;5014244;23;20120;-67
2021/11/24 03:42:30;;;;;;;25.95;18.13;;;;;;;;;;4993996;28;20036;-68
2021/11/24 03:44:56;;;;;;;30.52;19.02;;;;;;;;;;4993929;28;20022;-67
2021/11/24 03:47:22;;;;;;;25.95;16.77;;;;;;;;;;4993806;28;20462;-67
2021/11/24 03:49:48;;;;;;;27.30;16.60;;;;;;;;;;4993564;28;20023;-67
2021/11/24 03:52:14;;;;;;;26.75;17.25;;;;;;;;;;4994120;28;20022;-67
2021/11/24 03:54:40;;;;;;;25.30;17.05;;;;;;;;;;4993395;28;20084;-67
2021/11/24 03:57:06;;;;;;;26.30;17.40;;;;;;;;;;4993718;28;20034;-67
2021/11/24 03:59:32;;;;;;;27.42;16.98;;;;;;;;;;4993733;28;20112;-68
2021/11/24 04:01:58;;;;;;;25.98;17.15;;;;;;;;;;5009705;28;20034;-67
2021/11/24 04:04:24;;;;;;;26.33;15.90;;;;;;;;;;5011814;28;20026;-67
2021/11/24 04:06:50;;;;;;;26.83;16.55;;;;;;;;;;5013246;28;20025;-67
2021/11/24 04:09:16;;;;;;;27.58;17.75;;;;;;;;;;5013365;28;20781;-67
2021/11/24 04:11:42;;;;;;;24.20;16.15;;;;;;;;;;5013205;28;20022;-67
2021/11/24 04:14:09;;;;;;;26.83;16.63;;;;;;;;;;5013048;28;20022;-67
2021/11/24 04:16:35;;;;;;;28.10;17.55;;;;;;;;;;5011871;28;20142;-67
2021/11/24 04:19:02;;;;;;;26.80;17.50;;;;;;;;;;5012923;28;20137;-67
2021/11/24 04:21:28;;;;;;;25.90;16.95;;;;;;;;;;5012941;28;20036;-68
2021/11/24 04:23:54;;;;;;;25.17;17.08;;;;;;;;;;5012749;28;20025;-67
2021/11/24 04:26:20;;;;;;;23.20;15.52;;;;;;;;;;5013118;28;20472;-66
2021/11/24 04:28:46;;;;;;;26.35;17.20;;;;;;;;;;5013156;28;20025;-66
2021/11/24 04:31:12;;;;;;;26.60;16.50;;;;;;;;;;5012897;28;20076;-67
2021/11/24 04:33:39;;;;;;;29.40;17.23;;;;;;;;;;5011284;28;20033;-68
2021/11/24 04:36:05;;;;;;;25.42;15.48;;;;;;;;;;5012730;28;20101;-68
2021/11/24 04:38:32;;;;;;;26.70;18.00;;;;;;;;;;5012497;28;20053;-68
2021/11/24 04:40:58;;;;;;;26.20;16.50;;;;;;;;;;4995354;28;20097;-68
2021/11/24 04:43:29;;;;;;;25.27;16.27;;;;;;;;;;4992741;28;20033;-68
2021/11/24 04:45:55;;;;;;;25.48;16.15;;;;;;;;;;4993296;28;20050;-68
2021/11/24 04:48:21;;;;;;;25.58;16.92;;;;;;;;;;4993249;28;20030;-68
2021/11/24 04:50:47;;;;;;;25.52;15.98;;;;;;;;;;4993389;28;20057;-68
2021/11/24 04:53:13;;;;;;;28.25;17.50;;;;;;;;;;4992817;28;20022;-68
2021/11/24 04:55:40;;;;;;;26.27;15.52;;;;;;;;;;4989826;28;20029;-68
2021/11/24 04:58:06;;;;;;;30.95;17.35;;;;;;;;;;4972548;28;20447;-68
2021/11/24 05:00:32;;;;;;;25.00;15.75;;;;;;;;;;4981216;28;20032;-68
2021/11/24 05:02:58;;;;;;;27.95;17.30;;;;;;;;;;5012238;28;20109;-68
2021/11/24 05:05:29;;;;;;;23.02;15.55;;;;;;;;;;5012333;28;20120;-68
2021/11/24 05:07:55;;;;;;;26.27;15.97;;;;;;;;;;5012297;28;20062;-68
2021/11/24 05:10:21;;;;;;;22.67;15.18;;;;;;;;;;5012270;28;20026;-68
2021/11/24 05:12:47;;;;;;;21.55;14.00;;;;;;;;;;5012188;28;20577;-67
2021/11/24 05:15:21;;;;;;;25.75;15.75;;;;;;;;;;5012022;28;20046;-68
2021/11/24 05:17:51;;;;;;;24.98;15.05;;;;;;;;;;5011907;28;20033;-68
2021/11/24 05:20:20;;;;;;;25.33;15.65;;;;;;;;;;5012036;28;20021;-68
2021/11/24 05:22:48;;;;;;;23.92;16.00;;;;;;;;;;5011731;28;20509;-68
2021/11/24 05:25:14;;;;;;;29.88;17.23;;;;;;;;;;5011968;28;20037;-68
2021/11/24 05:27:41;;;;;;;25.88;16.00;;;;;;;;;;5011943;28;20037;-68
2021/11/24 05:30:09;;;;;;;29.38;17.40;;;;;;;;;;5011995;28;20057;-68
2021/11/24 05:32:36;;;;;;;23.52;14.80;;;;;;;;;;5011971;28;20029;-67
2021/11/24 05:35:02;;;;;;;22.85;15.90;;;;;;;;;;5011946;28;20167;-68
2021/11/24 05:37:28;;;;;;;25.52;17.08;;;;;;;;;;5011958;28;20046;-68
2021/11/24 05:39:53;;;;;;;27.85;16.98;;;;;;;;;;5002916;28;20514;-68
2021/11/24 05:42:20;;;;;;;23.55;15.75;;;;;;;;;;4992116;28;20101;-68
2021/11/24 05:44:48;;;;;;;29.35;17.90;;;;;;;;;;4991866;28;20054;-67
2021/11/24 05:47:58;;;;;;;25.52;16.90;;;;;;;;;;4992091;28;20040;-68
2021/11/24 05:50:04;;;;;;;26.80;15.95;;;;;;;;;;4991340;28;20455;-67
2021/11/24 05:52:30;;;;;;;30.65;17.10;;;;;;;;;;4992055;28;20037;-68
2021/11/24 05:54:56;;;;;;;26.98;17.13;;;;;;;;;;4991506;28;20416;-68
2021/11/24 05:57:22;;;;;;;27.42;16.58;;;;;;;;;;4991447;28;20023;-67
2021/11/24 05:59:48;;;;;;;26.38;16.77;;;;;;;;;;4991690;28;20057;-67
2021/11/24 06:02:14;;;;;;;24.85;16.77;;;;;;;;;;5008522;28;20106;-67
2021/11/24 06:04:40;;;;;;;28.13;18.13;;;;;;;;;;5011225;28;20030;-67
2021/11/24 06:07:06;;;;;;;25.05;15.50;;;;;;;;;;5011293;28;20030;-66
2021/11/24 06:09:32;;;;;;;27.75;16.90;;;;;;;;;;5011227;28;20421;-67
2021/11/24 06:11:58;;;;;;;28.73;17.30;;;;;;;;;;5013081;28;20622;-67
2021/11/24 06:14:24;;;;;;;26.55;16.67;;;;;;;;;;5014741;28;20052;-67
2021/11/24 06:16:50;;;;;;;25.85;16.75;;;;;;;;;;5014966;28;20060;-68
2021/11/24 06:19:16;;;;;;;28.80;16.73;;;;;;;;;;5015143;28;20034;-67
2021/11/24 06:21:42;;;;;;;29.35;17.85;;;;;;;;;;5015198;28;20026;-68
2021/11/24 06:24:08;;;;;;;28.60;17.08;;;;;;;;;;5014727;28;20030;-67
2021/11/24 06:26:34;;;;;;;25.80;16.35;;;;;;;;;;5014768;28;20041;-67
2021/11/24 06:29:00;;;;;;;23.33;15.77;;;;;;;;;;5014695;28;20499;-67
2021/11/24 06:31:28;;;;;;;28.30;17.60;;;;;;;;;;5014501;28;20033;-67
2021/11/24 06:33:54;;;;;;;24.10;16.75;;;;;;;;;;5014426;28;20031;-67
2021/11/24 06:36:24;;;;;;;27.45;17.48;;;;;;;;;;5014661;28;20116;-67
2021/11/24 06:38:50;;;;;;;26.60;16.73;;;;;;;;;;5014495;28;20084;-67
2021/11/24 06:41:16;;;;;;;25.83;16.05;;;;;;;;;;5013077;28;20030;-67
2021/11/24 06:43:42;;;;;;;26.42;17.15;;;;;;;;;;5014545;28;20060;-68
2021/11/24 06:46:08;;;;;;;24.45;15.45;;;;;;;;;;5014478;28;20104;-67
2021/11/24 06:48:34;;;;;;;30.23;17.55;;;;;;;;;;5014511;28;20018;-67
2021/11/24 06:51:01;;;;;;;24.50;16.52;;;;;;;;;;5014221;28;20022;-68
2021/11/24 06:53:27;;;;;;;25.48;16.60;;;;;;;;;;5012426;28;20113;-68
2021/11/24 06:55:53;;;;;;;27.92;17.33;;;;;;;;;;4994574;28;20046;-67
2021/11/24 06:58:19;;;;;;;27.60;16.88;;;;;;;;;;4994460;28;20035;-67
2021/11/24 07:00:45;;;;;;;26.50;17.02;;;;;;;;;;5001029;28;20022;-69
2021/11/24 07:03:12;;;;;;;26.25;16.83;;;;;;;;;;5007660;28;20113;-66
2021/11/24 07:05:38;;;;;;;25.13;15.27;;;;;;;;;;4992949;28;20061;-70
2021/11/24 07:08:05;;;;;;;28.45;17.63;;;;;;;;;;4994440;28;20026;-69
2021/11/24 07:10:32;;;;;;;26.55;16.80;;;;;;;;;;4994859;28;20475;-70
2021/11/24 07:12:58;;;;;;;29.92;19.33;;;;;;;;;;4994373;28;20667;-70
2021/11/24 07:15:24;;;;;;;31.27;17.98;;;;;;;;;;4994483;28;20018;-69
2021/11/24 07:17:50;;;;;;;29.27;17.10;;;;;;;;;;4993130;28;20022;-70
2021/11/24 07:20:16;;;;;;;35.38;20.00;;;;;;;;;;4994526;28;20030;-69
2021/11/24 07:22:42;;;;;;;37.53;23.42;;;;;;;;;;4993509;28;20039;-69
2021/11/24 07:25:09;;;;;;;28.15;18.20;;;;;;;;;;4994350;28;20392;-68
2021/11/24 07:27:36;;;;;;;32.75;19.35;;;;;;;;;;4993607;28;20492;-68
2021/11/24 07:30:02;;;;;;;37.25;21.67;;;;;;;;;;4993655;28;20027;-69
2021/11/24 07:32:28;;;;;;;35.95;20.20;;;;;;;;;;4994183;28;20029;-69
2021/11/24 07:34:54;;;;;;;32.40;19.33;;;;;;;;;;4993344;28;20030;-71
2021/11/24 07:37:20;;;;;;;32.90;19.98;;;;;;;;;;4993872;28;20029;-69
2021/11/24 07:39:46;;;;;;;34.10;21.08;;;;;;;;;;4993605;28;20045;-71
2021/11/24 07:42:12;;;;;;;31.00;20.05;;;;;;;;;;4994061;28;20088;-70
2021/11/24 07:44:39;;;;;;;29.98;19.85;;;;;;;;;;4993774;28;20490;-70
2021/11/24 07:47:05;;;;;;;28.83;18.92;;;;;;;;;;4992835;28;20054;-68
2021/11/24 07:49:31;;;;;;;29.05;17.70;;;;;;;;;;4993683;28;20030;-68
2021/11/24 07:51:57;;;;;;;30.60;17.30;;;;;;;;;;4993714;28;20113;-69
2021/11/24 07:54:23;;;;;;;28.88;17.52;;;;;;;;;;4993716;28;20023;-67
2021/11/24 07:56:49;;;;;;;27.10;17.20;;;;;;;;;;4994065;28;20077;-69
2021/11/24 07:59:15;;;;;;;28.67;17.65;;;;;;;;;;4991627;28;20419;-69
2021/11/24 08:01:41;;;;;;;30.63;19.33;;;;;;;;;;4993379;28;20117;-70
2021/11/24 08:04:07;;;;;;;27.27;17.42;;;;;;;;;;4993067;28;20030;-67
2021/11/24 08:06:33;;;;;;;27.52;17.35;;;;;;;;;;4993498;28;20109;-70
2021/11/24 08:08:59;;;;;;;34.00;19.20;;;;;;;;;;4993535;28;20019;-69
2021/11/24 08:11:25;;;;;;;28.33;18.75;;;;;;;;;;4993770;28;20028;-70
2021/11/24 08:13:51;;;;;;;26.33;16.50;;;;;;;;;;4993351;28;20073;-67
2021/11/24 08:16:17;;;;;;;25.30;15.48;;;;;;;;;;4993542;28;20022;-67
2021/11/24 08:18:43;;;;;;;24.95;16.38;;;;;;;;;;4993356;28;20023;-66
2021/11/24 08:21:09;;;;;;;22.27;15.13;;;;;;;;;;4993469;28;20416;-66
2021/11/24 08:23:35;;;;;;;21.70;15.25;;;;;;;;;;4993201;28;20022;-66
2021/11/24 08:26:01;;;;;;;25.25;16.42;;;;;;;;;;4993454;28;20057;-66
2021/11/24 08:28:27;;;;;;;24.30;15.93;;;;;;;;;;4993049;28;20022;-66
2021/11/24 08:30:53;;;;;;;24.67;15.30;;;;;;;;;;4992609;28;20396;-68
2021/11/24 08:33:19;;;;;;;21.40;14.23;;;;;;;;;;4992680;28;20463;-69
2021/11/24 08:35:46;;;;;;;24.60;15.77;;;;;;;;;;4992609;28;20022;-68
2021/11/24 08:38:12;;;;;;;26.05;14.20;;;;;;;;;;4992787;28;20101;-70
2021/11/24 08:40:39;;;;;;;21.17;14.73;;;;;;;;;;4992945;28;20121;-68
2021/11/24 08:43:05;;;;;;;24.60;15.07;;;;;;;;;;4992703;28;20365;-70
2021/11/24 08:45:31;;;;;;;20.52;13.98;;;;;;;;;;4992797;28;20077;-67
2021/11/24 08:47:57;;;;;;;22.67;14.43;;;;;;;;;;4992831;28;20033;-69
2021/11/24 08:50:23;;;;;;;25.67;16.42;;;;;;;;;;4992615;28;20377;-69
2021/11/24 08:52:49;;;;;;;19.35;12.82;;;;;;;;;;4992386;28;20027;-68
2021/11/24 08:55:15;;;;;;;18.98;12.73;;;;;;;;;;4992591;28;20053;-68
2021/11/24 08:57:42;;;;;;;21.15;13.90;;;;;;;;;;4992579;28;20483;-68
2021/11/24 09:00:09;;;;;;;23.23;14.85;;;;;;;;;;4992552;28;20026;-68
2021/11/24 09:02:35;;;;;;;24.40;15.50;;;;;;;;;;4992516;28;20488;-68
2021/11/24 09:05:02;;;;;;;20.48;13.60;;;;;;;;;;4992475;28;20065;-69
2021/11/24 09:07:28;;;;;;;31.00;19.95;;;;;;;;;;4990887;28;20034;-68
2021/11/24 09:09:54;;;;;;;17.70;11.75;;;;;;;;;;4992351;28;20033;-68
2021/11/24 09:12:20;;;;;;;17.77;12.90;;;;;;;;;;4992114;28;20431;-69
2021/11/24 09:14:46;;;;;;;16.35;11.40;;;;;;;;;;4992021;28;20092;-67
2021/11/24 09:17:12;;;;;;;14.05;10.20;;;;;;;;;;4992055;28;20488;-68
2021/11/24 09:19:38;;;;;;;16.48;11.20;;;;;;;;;;4992059;28;20058;-68
2021/11/24 09:22:06;;;;;;;16.25;11.27;;;;;;;;;;4992153;28;20545;-68
2021/11/24 09:24:32;;;;;;;13.50;9.48;;;;;;;;;;4992072;28;20511;-67
2021/11/24 09:27:06;;;;;;;16.98;11.10;;;;;;;;;;4992215;28;20428;-67
2021/11/24 09:29:32;;;;;;;14.27;9.82;;;;;;;;;;4992362;28;20100;-69
2021/11/24 09:32:03;;;;;;;20.40;13.25;;;;;;;;;;4992147;28;20035;-68
2021/11/24 09:34:30;;;;;;;19.45;13.18;;;;;;;;;;4992025;28;20492;-68
2021/11/24 09:36:56;;;;;;;23.30;14.45;;;;;;;;;;4992328;28;20030;-67
2021/11/24 09:39:22;;;;;;;14.20;9.90;;;;;;;;;;5005976;23;20940;-69
2021/11/24 09:41:49;;;;;;;16.00;10.95;;;;;;;;;;4992216;28;20026;-73
2021/11/24 09:44:15;;;;;;;16.85;10.95;;;;;;;;;;4991538;28;20019;-71
2021/11/24 09:46:46;;;;;;;14.07;9.55;;;;;;;;;;4992647;28;20033;-71
2021/11/24 09:49:13;;;;;;;16.35;11.13;;;;;;;;;;4995703;28;20050;-70
2021/11/24 09:51:40;;;;;;;19.73;11.65;;;;;;;;;;4996208;28;20022;-72
2021/11/24 09:54:06;;;;;;;12.18;9.40;;;;;;;;;;4995414;28;20050;-71
2021/11/24 09:56:32;;;;;;;14.57;9.75;;;;;;;;;;4993400;28;20084;-71
2021/11/24 09:58:58;;;;;;;31.17;20.27;;;;;;;;;;4995278;28;20018;-72
2021/11/24 10:01:26;;;;;;;21.27;13.35;;;;;;;;;;4994733;28;20110;-72
2021/11/24 10:03:52;;;;;;;19.85;13.38;;;;;;;;;;4994432;28;20030;-71
2021/11/24 10:06:23;;;;;;;18.55;12.05;;;;;;;;;;4995867;28;20022;-70
2021/11/24 10:08:49;;;;;;;;;;;;;;;;;;4996498;28;20050;-70
2021/11/24 10:11:15;;;;;;;13.25;9.20;;;;;;;;;;4996250;28;19966;-71
2021/11/24 10:13:41;;;;;;;12.73;8.70;;;;;;;;;;4995932;28;20026;-70
2021/11/24 10:16:19;;;;;;;13.10;8.77;;;;;;;;;;4995866;28;20026;-71
2021/11/24 10:18:56;;;;;;;16.75;10.55;;;;;;;;;;4995734;28;20018;-71
2021/11/24 10:21:22;;;;;;;10.75;8.23;;;;;;;;;;4995864;28;20030;-71
2021/11/24 10:23:49;;;;;;;12.68;8.88;;;;;;;;;;4995622;28;20105;-70
2021/11/24 10:26:17;;;;;;;17.15;11.00;;;;;;;;;;4995786;28;20023;-70
2021/11/24 10:29:02;;;;;;;14.73;10.65;;;;;;;;;;4995633;28;20025;-69
2021/11/24 10:31:28;;;;;;;14.18;9.70;;;;;;;;;;4995713;28;20120;-70
2021/11/24 10:33:54;;;;;;;15.25;10.07;;;;;;;;;;4995425;28;20030;-71
2021/11/24 10:36:20;;;;;;;21.30;14.48;;;;;;;;;;4995471;28;20019;-73
2021/11/24 10:38:49;;;;;;;12.23;8.43;;;;;;;;;;4995285;28;20029;-73
2021/11/24 10:41:36;;;;;;;11.60;7.95;;;;;;;;;;4995362;28;20038;-70
2021/11/24 10:44:03;;;;;;;16.00;9.27;;;;;;;;;;4995407;28;20453;-71
2021/11/24 10:46:30;;;;;;;11.60;7.90;;;;;;;;;;4995172;28;20034;-68
2021/11/24 10:49:00;;;;;;;18.83;11.90;;;;;;;;;;4995073;28;20046;-69
2021/11/24 10:51:31;;;;;;;15.82;10.93;;;;;;;;;;4995304;28;20034;-70
2021/11/24 10:54:03;;;;;;;10.80;7.95;;;;;;;;;;4994784;28;20018;-71
2021/11/24 10:56:30;;;;;;;13.43;10.07;;;;;;;;;;4981975;28;20121;-70
2021/11/24 10:59:14;;;;;;;20.50;12.25;;;;;;;;;;4994935;28;20034;-70
2021/11/24 11:01:40;;;;;;;14.27;10.73;;;;;;;;;;4995018;28;20105;-69
2021/11/24 11:04:10;;;;;;;16.52;10.60;;;;;;;;;;4994637;28;20492;-69
2021/11/24 11:06:37;;;;;;;21.52;13.85;;;;;;;;;;4994698;28;20056;-70
2021/11/24 11:09:03;;;;;;;15.18;10.15;;;;;;;;;;4994740;28;20050;-72
2021/11/24 11:11:30;;;;;;;16.80;10.82;;;;;;;;;;4994754;28;20408;-68
2021/11/24 11:14:12;;;;;;;10.15;6.80;;;;;;;;;;4992030;28;20023;-68
2021/11/24 11:16:46;;;;;;;18.75;11.90;;;;;;;;;;4993493;28;20026;-66
2021/11/24 11:19:32;;;;;;;13.43;8.10;;;;;;;;;;4993446;28;20057;-68
2021/11/24 11:21:58;;;;;;;12.35;8.18;;;;;;;;;;4993565;28;20023;-68
2021/11/24 11:24:24;;;;;;;13.30;9.40;;;;;;;;;;4993133;28;20076;-69
2021/11/24 11:26:50;;;;;;;13.82;9.05;;;;;;;;;;4993229;28;20129;-69
2021/11/24 11:29:16;;;;;;;15.93;9.82;;;;;;;;;;4993240;28;20045;-68
2021/11/24 11:31:43;;;;;;;23.80;15.90;;;;;;;;;;4993221;28;20030;-68
2021/11/24 11:34:10;;;;;;;23.67;16.02;;;;;;;;;;4992037;28;20439;-69
2021/11/24 11:36:37;;;;;;;21.65;14.60;;;;;;;;;;4994027;28;20026;-69
2021/11/24 11:39:03;;;;;;;22.95;15.27;;;;;;;;;;4993428;28;20130;-71
2021/11/24 11:41:35;;;;;;;22.35;15.30;;;;;;;;;;4994426;28;20030;-69
2021/11/24 11:44:01;;;;;;;26.40;15.60;;;;;;;;;;4994059;28;20022;-71
2021/11/24 11:46:29;;;;;;;25.25;15.07;;;;;;;;;;4994151;28;20057;-72
2021/11/24 11:48:57;;;;;;;23.38;15.13;;;;;;;;;;4993640;28;20022;-71
2021/11/24 11:51:32;;;;;;;26.02;16.48;;;;;;;;;;4993978;28;20475;-68
2021/11/24 11:53:58;;;;;;;25.45;15.80;;;;;;;;;;4993543;28;20475;-71
2021/11/24 11:56:33;;;;;;;23.75;14.73;;;;;;;;;;4993932;28;20023;-72
2021/11/24 11:58:59;;;;;;;26.67;15.52;;;;;;;;;;4993794;28;20113;-71
2021/11/24 12:01:35;;;;;;;25.90;15.63;;;;;;;;;;4994054;28;20054;-70
2021/11/24 12:04:07;;;;;;;26.08;16.30;;;;;;;;;;4993669;28;20113;-70
2021/11/24 12:06:38;;;;;;;22.00;15.02;;;;;;;;;;4992490;28;20109;-72
2021/11/24 12:09:07;;;;;;;23.70;14.98;;;;;;;;;;4993180;28;20025;-72
2021/11/24 12:11:59;;;;;;;25.05;15.00;;;;;;;;;;4993792;28;20034;-71
2021/11/24 12:14:44;;;;;;;24.00;15.32;;;;;;;;;;4990092;28;20081;-72
2021/11/24 12:20:03;;;;;;;37.78;23.77;;;;;;;;;;4993982;28;20026;-73
2021/11/24 12:27:51;;;;;;;22.20;15.05;;;;;;;;;;4993951;28;20030;-71
2021/11/24 12:33:07;;;;;;;22.30;13.88;;;;;;;;;;4993319;28;20076;-70
2021/11/24 12:35:34;;;;;;;22.85;14.63;;;;;;;;;;4993379;28;20026;-72
2021/11/24 12:38:01;;;;;;;24.00;15.48;;;;;;;;;;4991981;28;20037;-70
2021/11/24 12:40:27;;;;;;;26.90;15.15;;;;;;;;;;4991911;28;20038;-70
2021/11/24 12:42:57;;;;;;;23.05;13.77;;;;;;;;;;4993407;28;20026;-72
2021/11/24 12:45:25;;;;;;;21.00;14.00;;;;;;;;;;4992146;28;20065;-71
2021/11/24 12:47:57;;;;;;;21.17;13.85;;;;;;;;;;4993334;28;20034;-71
2021/11/24 12:50:24;;;;;;;28.33;15.30;;;;;;;;;;4992953;28;20054;-72
2021/11/24 12:52:59;;;;;;;127.03;71.97;;;;;;;;;;4993287;28;20018;-72
2021/11/24 12:55:26;;;;;;;104.57;56.38;;;;;;;;;;4990843;28;20022;-68
2021/11/24 12:57:52;;;;;;;20.30;12.50;;;;;;;;;;4991527;28;20026;-71
2021/11/24 13:00:28;;;;;;;98.20;52.85;;;;;;;;;;4992827;28;20066;-72
2021/11/24 13:02:55;;;;;;;23.15;14.48;;;;;;;;;;4992689;28;20038;-73
2021/11/24 13:05:21;;;;;;;24.85;14.95;;;;;;;;;;4992765;28;20045;-71
2021/11/24 13:07:50;;;;;;;21.23;13.77;;;;;;;;;;4992611;28;20109;-72
2021/11/24 13:10:17;;;;;;;68.65;37.45;;;;;;;;;;4992488;28;20073;-72
2021/11/24 13:12:43;;;;;;;24.00;13.13;;;;;;;;;;4992517;28;20026;-71
2021/11/24 13:15:10;;;;;;;21.38;14.20;;;;;;;;;;4992544;28;20068;-71
2021/11/24 13:17:39;;;;;;;21.42;13.32;;;;;;;;;;4992422;28;20102;-70
2021/11/24 13:20:10;;;;;;;21.60;13.25;;;;;;;;;;4992366;28;20034;-73
2021/11/24 13:22:36;;;;;;;23.05;13.75;;;;;;;;;;4992236;28;20034;-71
2021/11/24 13:25:21;;;;;;;39.53;23.38;;;;;;;;;;4994957;28;20067;-72
2021/11/24 13:28:00;;;;;;;26.38;13.88;;;;;;;;;;5003161;28;20034;-73
2021/11/24 13:30:29;;;;;;;17.73;11.45;;;;;;;;;;4998964;28;20033;-72
2021/11/24 13:33:01;;;;;;;22.10;12.93;;;;;;;;;;4994474;28;20507;-72
2021/11/24 13:35:28;;;;;;;30.77;18.65;;;;;;;;;;4991958;28;20559;-72
2021/11/24 13:37:55;;;;;;;25.35;14.30;;;;;;;;;;4992230;28;20030;-71
2021/11/24 13:40:37;;;;;;;48.05;29.30;;;;;;;;;;4991992;28;20054;-72
2021/11/24 13:43:03;;;;;;;34.80;19.63;;;;;;;;;;4992148;28;20456;-70
2021/11/24 13:45:39;;;;;;;22.35;13.00;;;;;;;;;;4992096;28;20022;-72
2021/11/24 13:48:13;;;;;;;18.10;11.60;;;;;;;;;;4991594;28;20022;-72
2021/11/24 13:50:39;;;;;;;18.27;11.50;;;;;;;;;;4992171;28;20045;-70
2021/11/24 13:53:25;;;;;;;45.92;26.15;;;;;;;;;;4991706;28;20022;-72
2021/11/24 13:56:07;;;;;;;44.42;24.52;;;;;;;;;;4990447;28;20033;-71
2021/11/24 13:58:33;;;;;;;23.38;14.65;;;;;;;;;;5010082;28;20057;-70
2021/11/24 14:01:14;;;;;;;40.55;22.92;;;;;;;;;;5011449;28;20056;-72
2021/11/24 14:03:46;;;;;;;34.22;18.80;;;;;;;;;;5005820;28;20109;-73
2021/11/24 14:06:31;;;;;;;38.65;22.00;;;;;;;;;;4991919;28;20034;-72
2021/11/24 14:09:13;;;;;;;21.65;12.95;;;;;;;;;;4992176;28;20038;-72
2021/11/24 14:11:39;;;;;;;;;;;;;;;;;;4992125;28;20079;-73
2021/11/24 14:14:09;;;;;;;31.95;17.77;;;;;;;;;;4991319;28;20407;-72
2021/11/24 14:16:35;;;;;;;18.40;11.23;;;;;;;;;;4991865;28;20444;-73
2021/11/24 14:19:13;;;;;;;23.65;13.68;;;;;;;;;;4989967;28;20030;-72
2021/11/24 14:21:49;;;;;;;20.58;13.10;;;;;;;;;;4991210;28;20118;-72
2021/11/24 14:24:15;;;;;;;24.85;13.57;;;;;;;;;;4991218;28;20029;-70
2021/11/24 14:26:41;;;;;;;18.77;12.30;;;;;;;;;;4991278;28;20034;-72
2021/11/24 14:29:07;;;;;;;25.38;14.30;;;;;;;;;;4991052;28;20026;-71
2021/11/24 14:31:33;;;;;;;18.85;11.45;;;;;;;;;;4991121;28;20506;-71